sensor_id;sensor_type;location;lat;lon;timestamp;pressure;altitude;pressure_sealevel;temperature;humidity
11648;BME280;5880;52.342;9.662;2023-07-13T00:01:51;100714.13;;;24.63;42.15
11648;BME280;5880;52.342;9.662;2023-07-13T00:04:19;100714.78;;;24.60;42.03
11648;BME280;5880;52.342;9.662;2023-07-13T00:06:46;100711.84;;;24.56;42.25
11648;BME280;5880;52.342;9.662;2023-07-13T00:09:16;100701.97;;;24.50;42.48
11648;BME280;5880;52.342;9.662;2023-07-13T00:11:43;100722.00;;;24.52;42.12
11648;BME280;5880;52.342;9.662;2023-07-13T00:14:10;100717.91;;;24.50;42.32
11648;BME280;5880;52.342;9.662;2023-07-13T00:16:38;100726.28;;;24.50;42.62
11648;BME280;5880;52.342;9.662;2023-07-13T00:19:06;100724.44;;;24.45;42.33
11648;BME280;5880;52.342;9.662;2023-07-13T00:21:32;100727.88;;;24.42;42.46
11648;BME280;5880;52.342;9.662;2023-07-13T00:23:58;100739.88;;;24.42;42.50
11648;BME280;5880;52.342;9.662;2023-07-13T00:26:23;100736.56;;;24.40;42.53
11648;BME280;5880;52.342;9.662;2023-07-13T00:28:49;100735.25;;;24.38;42.89
11648;BME280;5880;52.342;9.662;2023-07-13T00:31:15;100735.56;;;24.36;42.89
11648;BME280;5880;52.342;9.662;2023-07-13T00:33:42;100723.06;;;24.34;42.97
11648;BME280;5880;52.342;9.662;2023-07-13T00:36:09;100732.78;;;24.36;43.13
11648;BME280;5880;52.342;9.662;2023-07-13T00:38:35;100729.81;;;24.33;43.01
11648;BME280;5880;52.342;9.662;2023-07-13T00:41:03;100724.22;;;24.33;43.35
11648;BME280;5880;52.342;9.662;2023-07-13T00:43:30;100734.25;;;24.34;43.66
11648;BME280;5880;52.342;9.662;2023-07-13T00:48:31;100716.63;;;24.25;43.38
11648;BME280;5880;52.342;9.662;2023-07-13T00:51:00;100729.94;;;24.28;43.61
11648;BME280;5880;52.342;9.662;2023-07-13T00:53:29;100726.97;;;24.24;43.47
11648;BME280;5880;52.342;9.662;2023-07-13T00:55:57;100734.03;;;24.21;43.68
11648;BME280;5880;52.342;9.662;2023-07-13T00:58:26;100723.38;;;24.23;43.58
11648;BME280;5880;52.342;9.662;2023-07-13T01:00:53;100725.66;;;24.21;43.52
11648;BME280;5880;52.342;9.662;2023-07-13T01:03:19;100718.75;;;24.19;43.58
11648;BME280;5880;52.342;9.662;2023-07-13T01:05:48;100719.88;;;24.18;43.48
11648;BME280;5880;52.342;9.662;2023-07-13T01:08:15;100721.66;;;24.14;43.56
11648;BME280;5880;52.342;9.662;2023-07-13T01:10:42;100712.81;;;24.12;43.57
11648;BME280;5880;52.342;9.662;2023-07-13T01:13:15;100710.97;;;24.07;43.53
11648;BME280;5880;52.342;9.662;2023-07-13T01:15:45;100715.25;;;24.05;43.70
11648;BME280;5880;52.342;9.662;2023-07-13T01:18:16;100713.06;;;24.01;43.58
11648;BME280;5880;52.342;9.662;2023-07-13T01:21:01;100712.41;;;23.96;43.44
11648;BME280;5880;52.342;9.662;2023-07-13T01:23:28;100721.72;;;23.91;43.38
11648;BME280;5880;52.342;9.662;2023-07-13T01:25:55;100726.28;;;23.87;43.41
11648;BME280;5880;52.342;9.662;2023-07-13T01:28:24;100721.66;;;23.83;43.53
11648;BME280;5880;52.342;9.662;2023-07-13T01:30:53;100714.25;;;23.78;43.54
11648;BME280;5880;52.342;9.662;2023-07-13T01:33:19;100716.88;;;23.74;43.41
11648;BME280;5880;52.342;9.662;2023-07-13T01:35:46;100720.59;;;23.70;43.40
11648;BME280;5880;52.342;9.662;2023-07-13T01:38:16;100715.13;;;23.65;43.59
11648;BME280;5880;52.342;9.662;2023-07-13T01:40:43;100716.19;;;23.55;43.67
11648;BME280;5880;52.342;9.662;2023-07-13T01:43:10;100725.41;;;23.55;43.70
11648;BME280;5880;52.342;9.662;2023-07-13T01:45:36;100722.72;;;23.50;43.72
11648;BME280;5880;52.342;9.662;2023-07-13T01:48:02;100724.53;;;23.46;43.63
11648;BME280;5880;52.342;9.662;2023-07-13T01:50:27;100715.28;;;23.37;43.79
11648;BME280;5880;52.342;9.662;2023-07-13T01:52:53;100732.81;;;23.37;43.80
11648;BME280;5880;52.342;9.662;2023-07-13T01:55:20;100726.53;;;23.32;43.86
11648;BME280;5880;52.342;9.662;2023-07-13T01:57:46;100727.69;;;23.31;43.84
11648;BME280;5880;52.342;9.662;2023-07-13T02:00:13;100729.44;;;23.27;43.71
11648;BME280;5880;52.342;9.662;2023-07-13T02:02:39;100730.91;;;23.24;43.83
11648;BME280;5880;52.342;9.662;2023-07-13T02:05:05;100737.94;;;23.22;43.78
11648;BME280;5880;52.342;9.662;2023-07-13T02:07:31;100737.75;;;23.18;43.87
11648;BME280;5880;52.342;9.662;2023-07-13T02:09:57;100740.34;;;23.14;44.07
11648;BME280;5880;52.342;9.662;2023-07-13T02:12:23;100743.41;;;23.13;43.89
11648;BME280;5880;52.342;9.662;2023-07-13T02:14:49;100749.34;;;23.11;44.06
11648;BME280;5880;52.342;9.662;2023-07-13T02:17:14;100747.16;;;23.08;44.13
11648;BME280;5880;52.342;9.662;2023-07-13T02:19:40;100747.50;;;23.07;44.05
11648;BME280;5880;52.342;9.662;2023-07-13T02:22:06;100750.06;;;23.03;44.14
11648;BME280;5880;52.342;9.662;2023-07-13T02:24:32;100748.72;;;23.01;44.14
11648;BME280;5880;52.342;9.662;2023-07-13T02:26:57;100736.03;;;22.94;44.01
11648;BME280;5880;52.342;9.662;2023-07-13T02:29:23;100742.41;;;22.95;44.04
11648;BME280;5880;52.342;9.662;2023-07-13T02:31:49;100743.53;;;22.94;44.23
11648;BME280;5880;52.342;9.662;2023-07-13T02:34:15;100747.78;;;22.91;44.35
11648;BME280;5880;52.342;9.662;2023-07-13T02:36:40;100748.13;;;22.90;44.50
11648;BME280;5880;52.342;9.662;2023-07-13T02:39:06;100757.06;;;22.87;44.53
11648;BME280;5880;52.342;9.662;2023-07-13T02:41:32;100752.66;;;22.86;44.40
11648;BME280;5880;52.342;9.662;2023-07-13T02:43:59;100750.97;;;22.85;44.44
11648;BME280;5880;52.342;9.662;2023-07-13T02:46:34;100744.59;;;22.84;44.54
11648;BME280;5880;52.342;9.662;2023-07-13T02:49:01;100746.88;;;22.82;44.50
11648;BME280;5880;52.342;9.662;2023-07-13T02:51:27;100749.97;;;22.81;44.44
11648;BME280;5880;52.342;9.662;2023-07-13T02:53:53;100742.34;;;22.72;44.37
11648;BME280;5880;52.342;9.662;2023-07-13T02:56:28;100749.78;;;22.77;44.42
11648;BME280;5880;52.342;9.662;2023-07-13T02:58:54;100753.19;;;22.74;44.46
11648;BME280;5880;52.342;9.662;2023-07-13T03:01:21;100751.00;;;22.71;44.56
11648;BME280;5880;52.342;9.662;2023-07-13T03:03:48;100753.78;;;22.71;44.55
11648;BME280;5880;52.342;9.662;2023-07-13T03:06:15;100748.53;;;22.69;44.71
11648;BME280;5880;52.342;9.662;2023-07-13T03:08:43;100748.03;;;22.67;44.63
11648;BME280;5880;52.342;9.662;2023-07-13T03:11:13;100750.00;;;22.67;44.48
11648;BME280;5880;52.342;9.662;2023-07-13T03:13:41;100753.09;;;22.65;44.66
11648;BME280;5880;52.342;9.662;2023-07-13T03:16:09;100750.59;;;22.64;44.58
11648;BME280;5880;52.342;9.662;2023-07-13T03:18:37;100755.34;;;22.63;44.93
11648;BME280;5880;52.342;9.662;2023-07-13T03:21:04;100755.34;;;22.63;44.99
11648;BME280;5880;52.342;9.662;2023-07-13T03:23:30;100749.78;;;22.63;44.73
11648;BME280;5880;52.342;9.662;2023-07-13T03:26:13;100744.84;;;22.60;44.92
11648;BME280;5880;52.342;9.662;2023-07-13T03:28:39;100754.53;;;22.63;44.94
11648;BME280;5880;52.342;9.662;2023-07-13T03:31:15;100760.91;;;22.63;44.77
11648;BME280;5880;52.342;9.662;2023-07-13T03:33:42;100759.59;;;22.61;44.64
11648;BME280;5880;52.342;9.662;2023-07-13T03:36:14;100755.97;;;22.60;44.81
11648;BME280;5880;52.342;9.662;2023-07-13T03:38:41;100749.38;;;22.56;44.83
11648;BME280;5880;52.342;9.662;2023-07-13T03:41:07;100747.72;;;22.55;44.90
11648;BME280;5880;52.342;9.662;2023-07-13T03:43:32;100752.44;;;22.54;44.90
11648;BME280;5880;52.342;9.662;2023-07-13T03:45:58;100750.00;;;22.53;44.96
11648;BME280;5880;52.342;9.662;2023-07-13T03:48:24;100748.84;;;22.54;45.02
11648;BME280;5880;52.342;9.662;2023-07-13T03:50:49;100753.59;;;22.53;45.02
11648;BME280;5880;52.342;9.662;2023-07-13T03:53:15;100747.72;;;22.55;45.00
11648;BME280;5880;52.342;9.662;2023-07-13T03:55:41;100754.13;;;22.55;44.92
11648;BME280;5880;52.342;9.662;2023-07-13T04:00:59;100754.66;;;22.58;45.32
11648;BME280;5880;52.342;9.662;2023-07-13T04:03:26;100761.53;;;22.60;45.23
11648;BME280;5880;52.342;9.662;2023-07-13T04:05:54;100751.84;;;22.58;45.54
11648;BME280;5880;52.342;9.662;2023-07-13T04:08:20;100759.81;;;22.64;45.50
11648;BME280;5880;52.342;9.662;2023-07-13T04:10:46;100761.97;;;22.67;45.57
11648;BME280;5880;52.342;9.662;2023-07-13T04:13:11;100764.63;;;22.72;45.50
11648;BME280;5880;52.342;9.662;2023-07-13T04:15:39;100769.91;;;22.74;45.29
11648;BME280;5880;52.342;9.662;2023-07-13T04:18:05;100773.72;;;22.78;45.66
11648;BME280;5880;52.342;9.662;2023-07-13T04:20:30;100780.94;;;22.79;45.60
11648;BME280;5880;52.342;9.662;2023-07-13T04:22:56;100785.34;;;22.80;45.29
11648;BME280;5880;52.342;9.662;2023-07-13T04:25:23;100771.44;;;22.80;45.31
11648;BME280;5880;52.342;9.662;2023-07-13T04:27:49;100766.78;;;22.75;45.28
11648;BME280;5880;52.342;9.662;2023-07-13T04:30:15;100778.66;;;22.81;45.29
11648;BME280;5880;52.342;9.662;2023-07-13T04:32:41;100780.13;;;22.79;45.09
11648;BME280;5880;52.342;9.662;2023-07-13T04:35:07;100789.28;;;22.79;45.09
11648;BME280;5880;52.342;9.662;2023-07-13T04:37:33;100770.09;;;22.77;45.59
11648;BME280;5880;52.342;9.662;2023-07-13T04:39:58;100780.94;;;22.79;45.72
11648;BME280;5880;52.342;9.662;2023-07-13T04:42:24;100780.63;;;22.81;45.50
11648;BME280;5880;52.342;9.662;2023-07-13T04:44:51;100789.47;;;22.83;45.71
11648;BME280;5880;52.342;9.662;2023-07-13T04:47:17;100788.66;;;22.82;45.84
11648;BME280;5880;52.342;9.662;2023-07-13T04:49:44;100784.94;;;22.87;45.68
11648;BME280;5880;52.342;9.662;2023-07-13T04:52:10;100777.41;;;22.87;45.41
11648;BME280;5880;52.342;9.662;2023-07-13T04:54:35;100778.44;;;22.91;45.66
11648;BME280;5880;52.342;9.662;2023-07-13T04:57:05;100786.09;;;23.00;45.96
11648;BME280;5880;52.342;9.662;2023-07-13T04:59:34;100798.78;;;23.06;45.93
11648;BME280;5880;52.342;9.662;2023-07-13T05:02:00;100794.22;;;23.10;46.14
11648;BME280;5880;52.342;9.662;2023-07-13T05:04:27;100790.50;;;23.14;46.17
11648;BME280;5880;52.342;9.662;2023-07-13T05:06:52;100794.50;;;23.22;46.24
11648;BME280;5880;52.342;9.662;2023-07-13T05:09:18;100806.91;;;23.30;46.31
11648;BME280;5880;52.342;9.662;2023-07-13T05:11:44;100802.22;;;23.39;46.21
11648;BME280;5880;52.342;9.662;2023-07-13T05:14:10;100798.97;;;23.46;46.11
11648;BME280;5880;52.342;9.662;2023-07-13T05:16:36;100805.81;;;23.53;46.04
11648;BME280;5880;52.342;9.662;2023-07-13T05:19:02;100800.91;;;23.59;46.05
11648;BME280;5880;52.342;9.662;2023-07-13T05:21:28;100800.78;;;23.64;46.04
11648;BME280;5880;52.342;9.662;2023-07-13T05:23:54;100801.94;;;23.63;45.89
11648;BME280;5880;52.342;9.662;2023-07-13T05:26:20;100814.28;;;23.71;45.72
11648;BME280;5880;52.342;9.662;2023-07-13T05:28:46;100802.84;;;23.72;45.78
11648;BME280;5880;52.342;9.662;2023-07-13T05:31:12;100805.31;;;23.74;45.62
11648;BME280;5880;52.342;9.662;2023-07-13T05:33:39;100801.91;;;23.77;45.81
11648;BME280;5880;52.342;9.662;2023-07-13T05:36:05;100807.88;;;23.84;45.95
11648;BME280;5880;52.342;9.662;2023-07-13T05:38:30;100811.56;;;23.93;46.17
11648;BME280;5880;52.342;9.662;2023-07-13T05:40:57;100812.09;;;24.04;46.17
11648;BME280;5880;52.342;9.662;2023-07-13T05:43:23;100813.78;;;24.14;46.72
11648;BME280;5880;52.342;9.662;2023-07-13T05:45:52;100824.78;;;24.33;46.55
11648;BME280;5880;52.342;9.662;2023-07-13T05:48:18;100817.97;;;24.48;46.50
11648;BME280;5880;52.342;9.662;2023-07-13T05:50:43;100824.25;;;24.62;46.88
11648;BME280;5880;52.342;9.662;2023-07-13T05:53:09;100824.66;;;24.78;47.17
11648;BME280;5880;52.342;9.662;2023-07-13T05:55:35;100826.03;;;24.98;46.96
11648;BME280;5880;52.342;9.662;2023-07-13T05:58:01;100829.06;;;25.19;47.10
11648;BME280;5880;52.342;9.662;2023-07-13T06:00:27;100817.41;;;25.34;46.41
11648;BME280;5880;52.342;9.662;2023-07-13T06:02:53;100823.69;;;25.57;46.19
11648;BME280;5880;52.342;9.662;2023-07-13T06:05:18;100824.50;;;25.84;45.41
11648;BME280;5880;52.342;9.662;2023-07-13T06:07:44;100824.97;;;26.12;45.32
11648;BME280;5880;52.342;9.662;2023-07-13T06:10:10;100820.78;;;26.44;44.97
11648;BME280;5880;52.342;9.662;2023-07-13T06:12:36;100833.66;;;26.84;44.93
11648;BME280;5880;52.342;9.662;2023-07-13T06:15:02;100836.31;;;27.10;43.84
11648;BME280;5880;52.342;9.662;2023-07-13T06:17:28;100841.31;;;27.34;43.56
11648;BME280;5880;52.342;9.662;2023-07-13T06:19:54;100835.59;;;27.51;43.10
11648;BME280;5880;52.342;9.662;2023-07-13T06:22:19;100844.88;;;27.64;42.67
11648;BME280;5880;52.342;9.662;2023-07-13T06:24:45;100839.94;;;27.82;42.81
11648;BME280;5880;52.342;9.662;2023-07-13T06:27:10;100833.88;;;28.13;43.51
11648;BME280;5880;52.342;9.662;2023-07-13T06:29:36;100845.34;;;28.54;43.02
11648;BME280;5880;52.342;9.662;2023-07-13T06:32:02;100838.38;;;28.97;42.93
11648;BME280;5880;52.342;9.662;2023-07-13T06:34:27;100841.06;;;29.18;41.81
11648;BME280;5880;52.342;9.662;2023-07-13T06:36:53;100849.38;;;29.39;41.73
11648;BME280;5880;52.342;9.662;2023-07-13T06:39:19;100848.28;;;29.56;40.88
11648;BME280;5880;52.342;9.662;2023-07-13T06:41:44;100858.09;;;29.74;40.69
11648;BME280;5880;52.342;9.662;2023-07-13T06:44:10;100852.06;;;29.88;40.83
11648;BME280;5880;52.342;9.662;2023-07-13T06:46:35;100846.78;;;30.15;41.02
11648;BME280;5880;52.342;9.662;2023-07-13T06:49:01;100856.50;;;30.61;40.60
11648;BME280;5880;52.342;9.662;2023-07-13T06:51:27;100853.50;;;31.02;40.32
11648;BME280;5880;52.342;9.662;2023-07-13T06:53:53;100856.41;;;31.57;40.38
11648;BME280;5880;52.342;9.662;2023-07-13T06:56:19;100853.53;;;31.92;39.37
11648;BME280;5880;52.342;9.662;2023-07-13T06:58:45;100864.84;;;32.11;38.55
11648;BME280;5880;52.342;9.662;2023-07-13T07:01:11;100865.44;;;32.21;38.28
11648;BME280;5880;52.342;9.662;2023-07-13T07:03:36;100876.94;;;32.31;37.88
11648;BME280;5880;52.342;9.662;2023-07-13T07:06:13;100871.22;;;32.28;37.20
11648;BME280;5880;52.342;9.662;2023-07-13T07:08:40;100868.56;;;32.15;36.54
11648;BME280;5880;52.342;9.662;2023-07-13T07:11:11;100877.13;;;32.00;36.14
11648;BME280;5880;52.342;9.662;2023-07-13T07:13:37;100869.75;;;31.75;35.63
11648;BME280;5880;52.342;9.662;2023-07-13T07:16:02;100852.09;;;31.43;35.30
11648;BME280;5880;52.342;9.662;2023-07-13T07:18:28;100866.31;;;31.15;34.99
11648;BME280;5880;52.342;9.662;2023-07-13T07:20:54;100859.88;;;30.83;35.02
11648;BME280;5880;52.342;9.662;2023-07-13T07:23:19;100868.34;;;30.51;35.08
11648;BME280;5880;52.342;9.662;2023-07-13T07:25:46;100864.59;;;30.19;34.88
11648;BME280;5880;52.342;9.662;2023-07-13T07:28:16;100867.78;;;29.89;35.15
11648;BME280;5880;52.342;9.662;2023-07-13T07:30:46;100855.44;;;29.53;35.33
11648;BME280;5880;52.342;9.662;2023-07-13T07:33:13;100870.38;;;29.29;35.74
11648;BME280;5880;52.342;9.662;2023-07-13T07:35:38;100868.25;;;29.01;35.71
11648;BME280;5880;52.342;9.662;2023-07-13T07:38:04;100857.69;;;28.74;35.50
11648;BME280;5880;52.342;9.662;2023-07-13T07:40:30;100871.25;;;28.47;35.69
11648;BME280;5880;52.342;9.662;2023-07-13T07:42:57;100870.81;;;28.24;36.21
11648;BME280;5880;52.342;9.662;2023-07-13T07:45:23;100864.53;;;28.06;36.57
11648;BME280;5880;52.342;9.662;2023-07-13T07:47:49;100862.81;;;27.93;37.10
11648;BME280;5880;52.342;9.662;2023-07-13T07:50:15;100862.91;;;27.84;37.32
11648;BME280;5880;52.342;9.662;2023-07-13T07:52:41;100866.25;;;27.77;37.48
11648;BME280;5880;52.342;9.662;2023-07-13T07:55:07;100865.75;;;27.75;38.04
11648;BME280;5880;52.342;9.662;2023-07-13T07:57:33;100872.88;;;27.73;37.54
11648;BME280;5880;52.342;9.662;2023-07-13T07:59:59;100866.25;;;27.77;38.04
11648;BME280;5880;52.342;9.662;2023-07-13T08:02:25;100868.69;;;27.79;37.83
11648;BME280;5880;52.342;9.662;2023-07-13T08:04:51;100871.16;;;27.81;37.79
11648;BME280;5880;52.342;9.662;2023-07-13T08:07:18;100857.31;;;27.84;37.98
11648;BME280;5880;52.342;9.662;2023-07-13T08:09:43;100860.59;;;27.86;37.94
11648;BME280;5880;52.342;9.662;2023-07-13T08:12:09;100863.84;;;27.88;38.16
11648;BME280;5880;52.342;9.662;2023-07-13T08:14:35;100858.50;;;27.95;38.15
11648;BME280;5880;52.342;9.662;2023-07-13T08:17:01;100864.03;;;28.04;37.81
11648;BME280;5880;52.342;9.662;2023-07-13T08:19:26;100869.25;;;28.14;37.86
11648;BME280;5880;52.342;9.662;2023-07-13T08:21:52;100866.34;;;28.23;37.79
11648;BME280;5880;52.342;9.662;2023-07-13T08:24:18;100862.22;;;28.20;38.02
11648;BME280;5880;52.342;9.662;2023-07-13T08:26:45;100873.94;;;28.23;37.89
11648;BME280;5880;52.342;9.662;2023-07-13T08:29:11;100865.41;;;28.19;38.10
11648;BME280;5880;52.342;9.662;2023-07-13T08:31:37;100869.94;;;28.24;38.27
11648;BME280;5880;52.342;9.662;2023-07-13T08:34:03;100870.81;;;28.24;37.81
11648;BME280;5880;52.342;9.662;2023-07-13T08:36:29;100865.66;;;28.26;37.58
11648;BME280;5880;52.342;9.662;2023-07-13T08:38:55;100873.72;;;28.28;37.73
11648;BME280;5880;52.342;9.662;2023-07-13T08:41:21;100878.03;;;28.25;37.91
11648;BME280;5880;52.342;9.662;2023-07-13T08:43:58;100867.16;;;28.24;38.06
11648;BME280;5880;52.342;9.662;2023-07-13T08:46:38;100871.84;;;28.19;37.91
11648;BME280;5880;52.342;9.662;2023-07-13T08:49:10;100879.66;;;28.14;37.93
11648;BME280;5880;52.342;9.662;2023-07-13T08:51:49;100870.72;;;28.12;38.26
11648;BME280;5880;52.342;9.662;2023-07-13T08:54:36;100887.16;;;28.10;37.90
11648;BME280;5880;52.342;9.662;2023-07-13T08:57:17;100885.38;;;28.05;38.22
11648;BME280;5880;52.342;9.662;2023-07-13T08:59:44;100882.41;;;28.02;38.10
11648;BME280;5880;52.342;9.662;2023-07-13T09:02:44;100873.88;;;27.98;37.73
11648;BME280;5880;52.342;9.662;2023-07-13T09:05:28;100879.66;;;27.93;38.01
11648;BME280;5880;52.342;9.662;2023-07-13T09:11:11;100889.34;;;27.83;38.09
11648;BME280;5880;52.342;9.662;2023-07-13T09:14:40;100885.41;;;27.75;38.35
11648;BME280;5880;52.342;9.662;2023-07-13T09:17:19;100879.31;;;27.73;37.98
11648;BME280;5880;52.342;9.662;2023-07-13T09:19:54;100894.38;;;27.69;37.89
11648;BME280;5880;52.342;9.662;2023-07-13T09:22:26;100882.66;;;27.67;38.19
11648;BME280;5880;52.342;9.662;2023-07-13T09:25:05;100886.44;;;27.71;38.14
11648;BME280;5880;52.342;9.662;2023-07-13T09:27:43;100883.31;;;27.72;38.47
11648;BME280;5880;52.342;9.662;2023-07-13T09:32:45;100887.47;;;27.66;38.50
11648;BME280;5880;52.342;9.662;2023-07-13T09:35:19;100886.66;;;27.66;38.52
11648;BME280;5880;52.342;9.662;2023-07-13T09:37:46;100885.00;;;27.65;38.60
11648;BME280;5880;52.342;9.662;2023-07-13T09:40:24;100889.25;;;27.71;38.38
11648;BME280;5880;52.342;9.662;2023-07-13T09:42:54;100899.31;;;27.72;38.43
11648;BME280;5880;52.342;9.662;2023-07-13T09:45:32;100890.88;;;27.72;38.16
11648;BME280;5880;52.342;9.662;2023-07-13T09:48:05;100894.72;;;27.67;38.04
11648;BME280;5880;52.342;9.662;2023-07-13T09:50:32;100895.06;;;27.66;38.40
11648;BME280;5880;52.342;9.662;2023-07-13T09:52:57;100888.50;;;27.62;38.57
11648;BME280;5880;52.342;9.662;2023-07-13T09:55:34;100890.75;;;27.68;38.26
11648;BME280;5880;52.342;9.662;2023-07-13T09:58:15;100889.94;;;27.68;38.50
11648;BME280;5880;52.342;9.662;2023-07-13T10:00:54;100891.09;;;27.67;38.51
11648;BME280;5880;52.342;9.662;2023-07-13T10:03:24;100891.31;;;27.62;38.12
11648;BME280;5880;52.342;9.662;2023-07-13T10:05:52;100893.78;;;27.63;38.34
11648;BME280;5880;52.342;9.662;2023-07-13T10:08:28;100898.53;;;27.63;38.17
11648;BME280;5880;52.342;9.662;2023-07-13T10:11:02;100886.72;;;27.57;38.41
11648;BME280;5880;52.342;9.662;2023-07-13T10:13:37;100899.25;;;27.60;38.63
11648;BME280;5880;52.342;9.662;2023-07-13T10:16:07;100895.28;;;27.61;38.84
11648;BME280;5880;52.342;9.662;2023-07-13T10:18:48;100887.47;;;27.66;38.92
11648;BME280;5880;52.342;9.662;2023-07-13T10:21:19;100893.03;;;27.75;38.78
11648;BME280;5880;52.342;9.662;2023-07-13T10:23:53;100894.97;;;27.83;38.82
11648;BME280;5880;52.342;9.662;2023-07-13T10:26:33;100890.78;;;27.89;38.83
11648;BME280;5880;52.342;9.662;2023-07-13T10:29:07;100886.00;;;27.90;38.53
11648;BME280;5880;52.342;9.662;2023-07-13T10:31:38;100896.66;;;27.96;38.47
11648;BME280;5880;52.342;9.662;2023-07-13T10:34:04;100879.34;;;27.94;38.17
11648;BME280;5880;52.342;9.662;2023-07-13T10:36:43;100891.44;;;28.07;38.24
11648;BME280;5880;52.342;9.662;2023-07-13T10:39:27;100889.59;;;28.11;38.13
11648;BME280;5880;52.342;9.662;2023-07-13T10:42:05;100885.06;;;28.19;38.51
11648;BME280;5880;52.342;9.662;2023-07-13T10:44:35;100890.47;;;28.24;38.18
11648;BME280;5880;52.342;9.662;2023-07-13T10:47:06;100891.53;;;28.32;38.37
11648;BME280;5880;52.342;9.662;2023-07-13T10:49:35;100883.69;;;28.37;37.60
11648;BME280;5880;52.342;9.662;2023-07-13T10:52:02;100885.69;;;28.37;37.32
11648;BME280;5880;52.342;9.662;2023-07-13T10:54:33;100894.28;;;28.40;37.74
11648;BME280;5880;52.342;9.662;2023-07-13T10:57:18;100893.22;;;28.45;37.52
11648;BME280;5880;52.342;9.662;2023-07-13T11:00:15;100896.66;;;28.51;37.67
11648;BME280;5880;52.342;9.662;2023-07-13T11:02:42;100887.88;;;28.52;37.41
11648;BME280;5880;52.342;9.662;2023-07-13T11:05:31;100903.00;;;28.60;37.75
11648;BME280;5880;52.342;9.662;2023-07-13T11:08:32;100902.44;;;28.67;38.17
11648;BME280;5880;52.342;9.662;2023-07-13T11:10:59;100887.66;;;28.70;37.95
11648;BME280;5880;52.342;9.662;2023-07-13T11:13:57;100889.69;;;28.81;38.04
11648;BME280;5880;52.342;9.662;2023-07-13T11:25:00;100879.50;;;29.01;37.15
11648;BME280;5880;52.342;9.662;2023-07-13T11:27:49;100887.56;;;29.03;37.05
11648;BME280;5880;52.342;9.662;2023-07-13T11:33:19;100903.63;;;29.02;36.84
11648;BME280;5880;52.342;9.662;2023-07-13T11:36:13;100880.31;;;29.02;36.52
11648;BME280;5880;52.342;9.662;2023-07-13T11:38:49;100881.94;;;29.03;36.39
11648;BME280;5880;52.342;9.662;2023-07-13T11:41:28;100883.47;;;29.00;36.56
11648;BME280;5880;52.342;9.662;2023-07-13T11:44:14;100871.75;;;28.98;35.88
11648;BME280;5880;52.342;9.662;2023-07-13T11:46:47;100876.56;;;28.98;36.73
11648;BME280;5880;52.342;9.662;2023-07-13T11:49:18;100882.66;;;29.00;36.69
11648;BME280;5880;52.342;9.662;2023-07-13T11:51:44;100881.94;;;29.03;36.14
11648;BME280;5880;52.342;9.662;2023-07-13T11:54:23;100875.16;;;29.04;36.38
11648;BME280;5880;52.342;9.662;2023-07-13T11:56:50;100879.59;;;29.05;36.49
11648;BME280;5880;52.342;9.662;2023-07-13T11:59:16;100882.06;;;29.07;35.86
11648;BME280;5880;52.342;9.662;2023-07-13T12:01:48;100873.44;;;29.12;35.94
11648;BME280;5880;52.342;9.662;2023-07-13T12:04:27;100870.75;;;29.15;36.01
11648;BME280;5880;52.342;9.662;2023-07-13T12:07:06;100868.03;;;29.19;36.36
11648;BME280;5880;52.342;9.662;2023-07-13T12:09:34;100871.31;;;29.21;36.29
11648;BME280;5880;52.342;9.662;2023-07-13T12:12:02;100870.97;;;29.22;35.79
11648;BME280;5880;52.342;9.662;2023-07-13T12:14:28;100871.53;;;29.28;35.94
11648;BME280;5880;52.342;9.662;2023-07-13T12:16:55;100876.81;;;29.30;35.84
11648;BME280;5880;52.342;9.662;2023-07-13T12:19:28;100870.72;;;29.28;35.49
11648;BME280;5880;52.342;9.662;2023-07-13T12:21:58;100882.56;;;29.21;35.69
11648;BME280;5880;52.342;9.662;2023-07-13T12:24:26;100889.16;;;29.13;35.45
11648;BME280;5880;52.342;9.662;2023-07-13T12:27:04;100897.81;;;29.08;35.31
11648;BME280;5880;52.342;9.662;2023-07-13T12:29:32;100883.38;;;28.97;35.54
11648;BME280;5880;52.342;9.662;2023-07-13T12:31:59;100893.81;;;28.96;35.71
11648;BME280;5880;52.342;9.662;2023-07-13T12:34:26;100886.53;;;28.95;35.53
11648;BME280;5880;52.342;9.662;2023-07-13T12:37:12;100870.00;;;28.94;35.45
11648;BME280;5880;52.342;9.662;2023-07-13T12:39:48;100868.34;;;28.93;35.29
11648;BME280;5880;52.342;9.662;2023-07-13T12:42:28;100874.69;;;28.90;35.05
11648;BME280;5880;52.342;9.662;2023-07-13T12:47:50;100885.81;;;28.74;34.79
11648;BME280;5880;52.342;9.662;2023-07-13T12:50:24;100897.28;;;28.69;35.14
11648;BME280;5880;52.342;9.662;2023-07-13T12:53:01;100902.31;;;28.63;35.43
11648;BME280;5880;52.342;9.662;2023-07-13T12:55:29;100908.97;;;28.58;35.32
11648;BME280;5880;52.342;9.662;2023-07-13T12:57:59;100916.81;;;28.53;35.44
11648;BME280;5880;52.342;9.662;2023-07-13T13:03:05;100954.72;;;28.26;37.03
11648;BME280;5880;52.342;9.662;2023-07-13T13:05:33;100953.13;;;28.04;36.97
11648;BME280;5880;52.342;9.662;2023-07-13T13:07:59;100939.03;;;27.83;37.23
11648;BME280;5880;52.342;9.662;2023-07-13T13:10:25;100932.72;;;27.65;37.49
11648;BME280;5880;52.342;9.662;2023-07-13T13:12:52;100938.94;;;27.49;38.33
11648;BME280;5880;52.342;9.662;2023-07-13T13:15:18;100938.00;;;27.36;38.23
11648;BME280;5880;52.342;9.662;2023-07-13T13:17:44;100935.94;;;27.25;38.40
11648;BME280;5880;52.342;9.662;2023-07-13T13:20:21;100947.50;;;27.14;38.45
11648;BME280;5880;52.342;9.662;2023-07-13T13:22:47;100941.31;;;27.00;38.87
11648;BME280;5880;52.342;9.662;2023-07-13T13:25:15;100943.66;;;26.89;38.81
11648;BME280;5880;52.342;9.662;2023-07-13T13:27:42;100941.88;;;26.76;38.80
11648;BME280;5880;52.342;9.662;2023-07-13T13:30:16;100936.94;;;26.64;39.59
11648;BME280;5880;52.342;9.662;2023-07-13T13:32:45;100938.97;;;26.55;39.82
11648;BME280;5880;52.342;9.662;2023-07-13T13:35:19;100972.59;;;26.55;39.86
11648;BME280;5880;52.342;9.662;2023-07-13T13:37:47;100987.09;;;26.48;40.50
11648;BME280;5880;52.342;9.662;2023-07-13T13:40:20;101002.41;;;26.42;39.92